Los Alamitos, CA

6:50 AM PDT on April 19, 2018 (GMT -0700)
Los Alamitos Army Air Field

Weather History for KSLI - January, 2013

Change the Weather History Date:

Friday, January 25, 2013

  Actual Average Record
Temperature  
Mean Temperature 62 °F -  
Max Temperature 66 °F 67 °F 84 °F (2003)
Min Temperature 59 °F 49 °F 39 °F (2017)
Degree Days  
Heating Degree Days 2    
Growing Degree Days 12 (Base 50)    
Moisture  
Dew Point 59 °F    
Average Humidity 94    
Maximum Humidity 100    
Minimum Humidity 73    
Precipitation  
Precipitation 0.09 in - - ()
Sea Level Pressure  
Sea Level Pressure 30.04 in    
Wind  
Wind Speed 5 mph (NNW)    
Max Wind Speed 12 mph    
Max Gust Speed -    
Visibility 10 miles    
Events Rain    
Averages and records for this station are not official NWS values.
T = Trace of Precipitation, MM = Missing Value Source: NWS Daily Summary

Daily Weather History Graph

Daily Weather History Graph

Search for Another Location

Airport or City:

Astronomy

Jan. 25, 2013 Rise Set
Actual Time 6:52 AM PST 5:16 PM PST
Civil Twilight 6:26 AM PST 5:43 PM PST
Nautical Twilight 5:56 AM PST 6:13 PM PST
Astronomical Twilight 5:26 AM PST 6:42 PM PST
Moon 4:17 PM PST (1/25) 5:35 AM PST (1/25)
Length of Visible Light 11h 16m
Length of Day
10h 23m
Waxing Gibbous, 98% of the Moon is Illuminated
Jan 25
Waxing Gibbous
Jan 26
Full
Feb 3
Last Quarter
Feb 9
New
Feb 17
First Quarter

Hourly Weather History & Observations

Time (PST) Temp. Dew Point Humidity Pressure Visibility Wind Dir Wind Speed Gust Speed Precip Events Conditions
12:04 AM 59.0 °F 59.0 °F 100% 30.11 in 10.0 mi North 5.8 mph - N/A   Light Drizzle
12:13 AM 59.0 °F 59.0 °F 100% 30.11 in 10.0 mi North 5.8 mph - N/A   Clear
12:31 AM 59.0 °F 59.0 °F 100% 30.10 in 10.0 mi North 6.9 mph - N/A Rain Light Rain
12:46 AM 59.0 °F 59.0 °F 100% 30.10 in 10.0 mi North 4.6 mph - N/A   Mostly Cloudy
12:48 AM 59.0 °F 59.0 °F 100% 30.10 in 10.0 mi North 4.6 mph - N/A Rain Light Rain
12:58 AM 59.9 °F 57.7 °F 93% 30.12 in 10.0 mi North 4.6 mph - 0.01 in Rain Light Rain
1:23 AM 59.0 °F 57.2 °F 94% 30.11 in 10.0 mi WNW 4.6 mph - N/A   Mostly Cloudy
1:33 AM 59.0 °F 57.2 °F 94% 30.11 in 10.0 mi WNW 4.6 mph - N/A Rain Light Rain
1:56 AM 59.0 °F 59.0 °F 100% 30.10 in 10.0 mi West 3.5 mph - N/A   Mostly Cloudy
1:57 AM 59.0 °F 59.0 °F 100% 30.10 in 10.0 mi West 3.5 mph - N/A Rain Light Rain
1:58 AM 59.0 °F 59.0 °F 100% 30.11 in 10.0 mi WSW 3.5 mph - 0.00 in Rain Light Rain
2:09 AM 59.0 °F 59.0 °F 100% 30.09 in 10.0 mi West 3.5 mph - N/A   Partly Cloudy
2:11 AM 59.0 °F 59.0 °F 100% 30.09 in 10.0 mi West 3.5 mph - N/A Rain Light Rain
2:39 AM 59.0 °F 59.0 °F 100% 30.06 in 10.0 mi NNW 8.1 mph - N/A   Scattered Clouds
2:58 AM 59.0 °F 59.0 °F 100% 30.07 in 10.0 mi Variable 2.3 mph - 0.00 in   Mostly Cloudy
3:36 AM 59.0 °F 59.0 °F 100% 30.05 in 10.0 mi NNW 5.8 mph - N/A Rain Light Rain
3:52 AM 59.0 °F 59.0 °F 100% 30.05 in 10.0 mi North 3.5 mph - N/A   Mostly Cloudy
3:58 AM 59.5 °F 59.5 °F 100% 30.06 in 10.0 mi North 2.3 mph - 0.00 in   Mostly Cloudy
4:03 AM 59.0 °F 59.0 °F 100% 30.05 in 10.0 mi NNW 3.5 mph - N/A Rain Light Rain
4:44 AM 59.0 °F 59.0 °F 100% 30.06 in 10.0 mi West 4.6 mph - N/A   Overcast
4:47 AM 59.0 °F 59.0 °F 100% 30.05 in 10.0 mi WNW 5.8 mph - N/A Rain Light Rain
4:58 AM 59.2 °F 59.2 °F 100% 30.07 in 10.0 mi Variable 1.2 mph - 0.02 in Rain Light Rain
5:38 AM 59.0 °F 59.0 °F 100% 30.06 in 10.0 mi North 4.6 mph - N/A   Overcast
5:55 AM 59.0 °F 59.0 °F 100% 30.07 in 10.0 mi NNE 4.6 mph - N/A Rain Light Rain
5:58 AM 59.0 °F 59.0 °F 100% 30.08 in 10.0 mi NNE 4.6 mph - 0.01 in Rain Light Rain
6:58 AM 59.0 °F 59.0 °F 100% 30.09 in 4.0 mi East 5.8 mph - 0.02 in Rain Rain
7:20 AM 59.0 °F 59.0 °F 100% 30.08 in 10.0 mi NE 6.9 mph - N/A   Mostly Cloudy
7:58 AM 59.7 °F 59.7 °F 100% 30.10 in 10.0 mi ENE 8.1 mph - 0.02 in   Overcast
8:58 AM 61.3 °F 61.3 °F 100% 30.11 in 10.0 mi ENE 11.5 mph - N/A   Overcast
9:58 AM 63.0 °F 56.5 °F 79% 30.12 in 10.0 mi ENE 10.4 mph - N/A   Mostly Cloudy
10:58 AM 64.4 °F 56.8 °F 76% 30.11 in 10.0 mi ENE 10.4 mph - N/A   Overcast
11:04 AM 64.4 °F 57.2 °F 77% 30.10 in 10.0 mi ENE 8.1 mph - N/A Rain Light Rain
11:47 AM 64.4 °F 57.2 °F 77% 30.07 in 10.0 mi ENE 6.9 mph - N/A   Overcast
11:58 AM 64.8 °F 57.2 °F 76% 30.08 in 10.0 mi ENE 6.9 mph - 0.00 in   Overcast
12:28 PM 64.4 °F 57.2 °F 77% 30.05 in 10.0 mi ENE 6.9 mph - N/A Rain Light Rain
12:50 PM 66.2 °F 57.2 °F 73% 30.03 in 10.0 mi NE 6.9 mph - N/A   Overcast
12:58 PM 65.7 °F 57.9 °F 76% 30.03 in 10.0 mi NE 6.9 mph - 0.00 in   Overcast
1:58 PM 65.8 °F 57.7 °F 75% 30.02 in 10.0 mi East 3.5 mph - N/A   Overcast
2:00 PM 66.2 °F 57.2 °F 73% 30.01 in 10.0 mi East 3.5 mph - N/A Rain Light Rain
2:58 PM 65.1 °F 58.5 °F 79% 30.02 in 10.0 mi East 4.6 mph - 0.00 in Rain Light Rain
3:41 PM 64.4 °F 59.0 °F 83% 29.97 in 10.0 mi NNE 4.6 mph - N/A   Overcast
3:58 PM 64.4 °F 59.7 °F 85% 29.99 in 10.0 mi NE 3.5 mph - 0.00 in   Overcast
4:20 PM 64.4 °F 59.0 °F 83% 29.98 in 10.0 mi Calm Calm - N/A Rain Light Rain
4:58 PM 63.3 °F 61.5 °F 94% 29.97 in 10.0 mi North 2.3 mph - 0.00 in Rain Light Rain
5:37 PM 62.6 °F 60.8 °F 94% 29.96 in 10.0 mi WNW 3.5 mph - N/A   Overcast
5:50 PM 62.6 °F 62.6 °F 100% 29.98 in 10.0 mi SW 6.9 mph - N/A Rain Light Rain
5:58 PM 62.1 °F 62.1 °F 100% 29.99 in 10.0 mi WSW 6.9 mph - 0.01 in Rain Light Rain
6:27 PM 62.6 °F 62.6 °F 100% 29.98 in 10.0 mi WSW 3.5 mph - N/A   Overcast
6:58 PM 61.9 °F 61.9 °F 100% 30.00 in 10.0 mi NW 4.6 mph - 0.00 in   Overcast
7:20 PM 60.8 °F 60.8 °F 100% 29.99 in 9.0 mi WNW 2.3 mph - N/A Rain Light Rain
7:49 PM 60.8 °F 60.8 °F 100% 29.97 in 7.0 mi North 4.6 mph - N/A   Overcast
7:58 PM 61.2 °F 61.2 °F 100% 29.98 in 7.0 mi NW 4.6 mph - 0.00 in   Overcast
8:58 PM 61.3 °F 61.3 °F 100% 29.98 in 10.0 mi WNW 3.5 mph - N/A   Overcast
9:58 PM 61.0 °F 61.0 °F 100% 29.97 in 10.0 mi North 2.3 mph - N/A   Overcast
10:36 PM 59.0 °F 59.0 °F 100% 29.97 in 10.0 mi SW 3.5 mph - N/A Rain Light Rain
10:54 PM 59.0 °F 59.0 °F 100% 29.97 in 10.0 mi WSW 3.5 mph - N/A   Overcast
10:58 PM 59.5 °F 59.5 °F 100% 29.98 in 10.0 mi West 2.3 mph - 0.00 in   Overcast
11:21 PM 59.0 °F 59.0 °F 100% 29.96 in 10.0 mi West 3.5 mph - N/A Rain Light Rain
11:30 PM 59.0 °F 59.0 °F 100% 29.96 in 10.0 mi NW 4.6 mph - N/A   Overcast
11:58 PM 59.7 °F 59.7 °F 100% 29.96 in 10.0 mi NW 2.3 mph - 0.00 in   Overcast